Airfield :
LOGIN :

Register | Disclaimer

   EN    FR    IT 

 










Legend :    VFR   Marginal VFR   IFR   Intensive IFR   Very Intensive IFR
Visi :
Ceiling :
>= 8 km
>= 3000ft
5 to 8 km
1000 to 3000 ft
1500m to 5 km
500 to 1000 ft
800 to 1500m
200 to 500 ft
< 800m
< 200 ft
Symbols :   Thunderstorms  Fog  Heavy snow  Heavy precipitations  Wind > 20 kt
SIGMETs :     Misc.  Thunderstorms  Icing  Turbulence  Mountain Waves  Volcanic Ashes







- Airport Elevation : 74 ft
- IATA code : EIN


EHEH - Eindhoven

CURRENT METAR :
  • 132230Z AUTO 05009KT 9999 OVC036 01/M01 Q1021 BLU

EXPIRED METARs :
  • 132227Z AUTO 05009KT 9999 OVC037 01/M01 Q1021 BLU 05009KT 9999 BKN035
  • 132155Z AUTO 05009KT 020V080 9999 OVC038 01/M01 Q1021 BLU 05008KT 9999 BKN035
  • 132125Z AUTO 05008KT 9999 OVC036 01/M01 Q1021 BLU 05008KT 9999 BKN035
  • 132055Z AUTO 05008KT 010V130 9999 BKN041 M00/M01 Q1021 BLU 05007KT 9999 BKN040
  • 132036Z AUTO 05008KT 020V080 9000 BR FEW042 M00/M01 Q1021 BLU 05007KT 9999 BKN040
  • 132025Z AUTO 04006KT 9000 BR SCT042 M02/M03 Q1021 BLU 05007KT 9999 BKN040
  • 131955Z AUTO 03006KT 8000 BR NCD M02/M03 Q1021 BLU 05008KT 9999 BKN030

TAF TAF EHEH
Valid from the 13 at 18:00 until the 15 at 00:00 UTC


131729Z 1318/1424 05008KT CAVOK
BECMG 1318/1320 9999 FEW018 BKN025
PROB30
TEMPO 1400/1408 SCT007 BKN010
No reported NOTAMs for that airfield.



MET'MAP, your aeronautical weather chart ! - Copyright ORBIFLY December 2007 - Disclaimer

ORBIFLY MET'MAP TEAM :

Programming & Development : Alexandra Zaïnal
Concept & Development : Baudouin d'Aumeries
Co-Development & Prog : Marc-Olivier Méhu
Technical & hardware support : Manuel Goepfert

Contact : metmap@orbifly.com




SOURCES & CREDITS :

   NOAA